Strona główna
METAR-TAF:

METAR-TAF

Lotnisko :

Algeciras, Hiszpania

Szerokość geograficzna: 36-07-44N, Długość geograficzna: 05-26-28W, wysokość: 30 m

Aktualna obserwacja pogody

Raport powstał 37 minut temu, godzina 18:30 UTC
Wiatr 5 kt od wschodnio-północny wschód, zmienny między północno-północny wschód i wschód
Temperatura 22°C
Wilgotność 83%
Ciśnienie 1009 hPa
Widzialność 10 km lub więcej
Brak chmur poniżej 1500 m i brak chmur cumulonimbus

METAR: LEAG 251830Z AUTO 06005KT 020V080 CAVOK 22/19 Q1009

czas: 21:07 (19:07 UTC)

Prognoza

Raport powstał 5 godziny i 7 minut temu, godzina 14:00 UTC
Prognoza ważna od 25 godzina 15 UTC do 26 godzina 15 UTC
Wiatr 5 kt od wschodnio-południowy wschód
Widzialność 10 km lub więcej
Mało chmury na wysokości 1500 ft
Stopniowe zmiany
od 26 godzina 08 UTC do 26 godzina 10 UTC
Wiatr 10 kt od zachodnio-południowy zachód

TAF: LEAG 251400Z 2515/2615 11005KT 9999 FEW015 TX23/2614Z TN19/2606Z BECMG 2608/2610 25010KT

Obserwacja i prognoza pogody dla ponad 4000 lotnisk (raport METAR i TAF).

Dostępne stacje oznaczono żółtymi i czerwonymi punktami na mapie.

Najedź kursorem aby zobaczyć nazwę stacji.

Kliknij aby zobaczyć obserwacje i prognozy pogody.

Aby zmienić mapę: kliknij na zielony przycisk z czarnym krzyżykiem, aby powiększyć; na zielony przycisk z myślnikiem, aby pomniejszyć; na zielone strzałki, aby przejść do map sąsiednich.


METAR-TAF: